createdAt,value
2018-02-19T00:00:28.511Z,37.50
2018-02-19T00:02:56.098Z,38.97
2018-02-19T00:05:23.739Z,39.30
2018-02-19T00:07:51.313Z,36.47
2018-02-19T00:10:18.959Z,43.70
2018-02-19T00:12:46.553Z,36.33
2018-02-19T00:15:14.515Z,37.70
2018-02-19T00:17:42.974Z,35.10
2018-02-19T00:20:10.584Z,40.37
2018-02-19T00:22:38.147Z,40.27
2018-02-19T00:25:05.742Z,35.70
2018-02-19T00:27:33.327Z,36.37
2018-02-19T00:30:00.962Z,37.83
2018-02-19T00:32:28.546Z,35.17
2018-02-19T00:34:56.166Z,35.67
2018-02-19T00:37:23.764Z,39.07
2018-02-19T00:39:51.849Z,34.63
2018-02-19T00:42:19.467Z,34.70
2018-02-19T00:44:47.075Z,35.37
2018-02-19T00:47:14.634Z,34.97
2018-02-19T00:49:42.255Z,31.80
2018-02-19T00:52:09.849Z,33.50
2018-02-19T00:54:37.489Z,34.33
2018-02-19T00:57:05.088Z,31.77
2018-02-19T00:59:32.719Z,35.40
2018-02-19T01:02:00.281Z,33.40
2018-02-19T01:04:27.883Z,35.13
2018-02-19T01:06:55.474Z,33.90
2018-02-19T01:09:23.074Z,31.77
2018-02-19T01:11:50.681Z,33.43
2018-02-19T01:14:18.255Z,33.33
2018-02-19T01:16:45.866Z,30.90
2018-02-19T01:19:13.453Z,28.13
2018-02-19T01:21:41.070Z,28.57
2018-02-19T01:24:08.650Z,30.63
2018-02-19T01:26:36.239Z,27.13
2018-02-19T01:29:03.871Z,27.93
2018-02-19T01:31:31.545Z,34.20
2018-02-19T01:33:59.159Z,28.93
2018-02-19T01:36:26.835Z,28.43
2018-02-19T01:38:54.383Z,31.43
2018-02-19T01:41:21.984Z,29.73
2018-02-19T01:43:49.586Z,29.23
2018-02-19T01:46:17.568Z,27.73
2018-02-19T01:48:45.133Z,27.70
2018-02-19T01:51:12.814Z,31.87
2018-02-19T01:53:40.411Z,32.03
2018-02-19T01:56:08.062Z,35.20
2018-02-19T01:58:35.690Z,30.07
2018-02-19T02:01:03.272Z,28.53
2018-02-19T02:03:30.847Z,30.70
2018-02-19T02:05:58.460Z,27.73
2018-02-19T02:08:26.056Z,29.37
2018-02-19T02:10:53.669Z,28.60
2018-02-19T02:15:55.167Z,29.23
2018-02-19T02:18:22.793Z,28.57
2018-02-19T02:20:50.410Z,33.40
2018-02-19T02:23:18.011Z,30.30
2018-02-19T02:25:45.648Z,26.30
2018-02-19T02:28:13.224Z,26.83
2018-02-19T02:30:40.833Z,31.90
2018-02-19T02:33:08.486Z,27.07
2018-02-19T02:35:36.048Z,28.07
2018-02-19T02:38:03.699Z,27.13
2018-02-19T02:40:31.332Z,25.07
2018-02-19T02:42:58.964Z,25.40
2018-02-19T02:45:26.580Z,26.07
2018-02-19T02:47:54.193Z,23.93
2018-02-19T02:50:21.793Z,27.97
2018-02-19T02:52:49.414Z,22.27
2018-02-19T02:55:17.016Z,23.00
2018-02-19T02:57:44.665Z,26.73
2018-02-19T03:00:12.247Z,22.10
2018-02-19T03:02:39.870Z,23.13
2018-02-19T03:05:07.468Z,25.67
2018-02-19T03:07:35.429Z,24.67
2018-02-19T03:10:03.042Z,24.03
2018-02-19T03:12:30.668Z,23.57
2018-02-19T03:14:58.263Z,20.33
2018-02-19T03:17:25.876Z,22.63
2018-02-19T03:19:53.478Z,22.20
2018-02-19T03:22:21.120Z,23.80
2018-02-19T03:24:48.738Z,20.57
2018-02-19T03:27:16.348Z,23.50
2018-02-19T03:29:43.957Z,22.70
2018-02-19T03:32:11.599Z,26.17
2018-02-19T03:34:39.241Z,25.40
2018-02-19T03:37:06.866Z,23.50
2018-02-19T03:39:34.864Z,26.83
2018-02-19T03:42:02.461Z,23.47
2018-02-19T03:44:30.055Z,19.90
2018-02-19T03:46:57.648Z,19.73
2018-02-19T03:49:25.243Z,24.10
2018-02-19T03:51:52.878Z,22.03
2018-02-19T03:54:20.500Z,20.57
2018-02-19T03:56:48.105Z,23.10
2018-02-19T03:59:15.698Z,21.10
2018-02-19T04:01:43.268Z,22.70
2018-02-19T04:04:11.311Z,20.10
2018-02-19T04:06:38.904Z,21.73
2018-02-19T04:09:06.536Z,24.20
2018-02-19T04:11:34.121Z,23.90
2018-02-19T04:14:01.728Z,20.93
2018-02-19T04:16:29.331Z,23.00
2018-02-19T04:18:57.336Z,24.60
2018-02-19T04:21:24.949Z,25.67
2018-02-19T04:23:52.561Z,23.67
2018-02-19T04:26:20.171Z,25.33
2018-02-19T04:28:47.783Z,25.90
2018-02-19T04:31:15.403Z,23.70
2018-02-19T04:33:43.049Z,23.27
2018-02-19T04:36:11.060Z,25.00
2018-02-19T04:38:38.699Z,21.53
2018-02-19T04:41:06.328Z,25.50
2018-02-19T04:43:34.000Z,21.83
2018-02-19T04:46:02.576Z,23.00
2018-02-19T04:48:34.036Z,25.50
2018-02-19T04:51:01.686Z,28.47
2018-02-19T04:53:29.289Z,27.10
2018-02-19T04:55:56.855Z,24.27
2018-02-19T04:58:24.455Z,26.07
2018-02-19T05:00:52.057Z,27.67
2018-02-19T05:03:19.660Z,20.10
2018-02-19T05:05:47.272Z,22.53
2018-02-19T05:08:14.891Z,22.90
2018-02-19T05:10:42.486Z,23.43
2018-02-19T05:13:10.101Z,24.63
2018-02-19T05:15:37.712Z,25.47
2018-02-19T05:18:05.275Z,19.50
2018-02-19T05:20:32.883Z,24.17
2018-02-19T05:23:00.541Z,21.20
2018-02-19T05:25:28.126Z,20.60
2018-02-19T05:27:55.777Z,24.20
2018-02-19T05:30:23.373Z,20.00
2018-02-19T05:32:50.958Z,24.23
2018-02-19T05:35:18.577Z,22.10
2018-02-19T05:37:46.171Z,21.00
2018-02-19T05:40:13.765Z,38.97
2018-02-19T05:42:41.373Z,26.93
2018-02-19T05:45:09.032Z,24.63
2018-02-19T05:47:36.685Z,25.57
2018-02-19T05:50:04.258Z,25.83
2018-02-19T05:52:31.884Z,41.23
2018-02-19T05:54:59.492Z,39.57
2018-02-19T05:57:27.080Z,29.90
2018-02-19T05:59:54.724Z,24.73
2018-02-19T06:02:22.356Z,24.07
2018-02-19T06:04:49.968Z,21.40
2018-02-19T06:07:17.790Z,21.93
2018-02-19T06:09:45.404Z,22.13
2018-02-19T06:12:12.992Z,22.90
2018-02-19T06:14:40.584Z,24.13
2018-02-19T06:17:08.227Z,26.73
2018-02-19T06:19:35.807Z,21.77
2018-02-19T06:22:03.440Z,23.33
2018-02-19T06:24:31.021Z,22.70
2018-02-19T06:26:58.680Z,22.70
2018-02-19T06:29:26.319Z,33.80
2018-02-19T06:31:53.921Z,24.13
2018-02-19T06:34:21.545Z,21.17
2018-02-19T06:36:49.191Z,26.77
2018-02-19T06:39:16.850Z,24.10
2018-02-19T06:41:44.453Z,23.43
2018-02-19T06:44:12.037Z,22.63
2018-02-19T06:46:39.653Z,25.97
2018-02-19T06:49:07.236Z,19.73
2018-02-19T06:51:35.253Z,26.97
2018-02-19T06:54:02.847Z,24.43
2018-02-19T06:56:30.452Z,22.03
2018-02-19T06:58:58.050Z,20.80
2018-02-19T07:01:25.698Z,21.83
2018-02-19T07:03:53.294Z,22.67
2018-02-19T07:06:20.904Z,26.37
2018-02-19T07:08:48.484Z,21.03
2018-02-19T07:11:16.309Z,25.90
2018-02-19T07:13:43.941Z,25.13
2018-02-19T07:16:11.534Z,21.53
2018-02-19T07:18:39.151Z,26.07
2018-02-19T07:21:06.757Z,23.53
2018-02-19T07:23:34.373Z,21.63
2018-02-19T07:26:01.963Z,22.80
2018-02-19T07:28:29.567Z,21.67
2018-02-19T07:30:57.171Z,21.70
2018-02-19T07:33:24.813Z,23.57
2018-02-19T07:35:52.407Z,22.17
2018-02-19T07:38:20.033Z,24.80
2018-02-19T07:40:47.645Z,24.93
2018-02-19T07:43:15.243Z,25.50
2018-02-19T07:45:42.852Z,22.50
2018-02-19T07:48:10.459Z,21.77
2018-02-19T07:50:38.055Z,20.87
2018-02-19T07:53:05.694Z,17.30
2018-02-19T07:55:33.297Z,20.80
2018-02-19T07:58:02.816Z,18.40
2018-02-19T08:00:31.597Z,20.30
2018-02-19T08:02:59.219Z,21.00
2018-02-19T08:05:27.206Z,20.97
2018-02-19T08:07:54.836Z,22.97
2018-02-19T08:10:22.447Z,19.90
2018-02-19T08:12:50.065Z,21.23
2018-02-19T08:15:17.684Z,20.33
2018-02-19T08:17:45.433Z,22.20
2018-02-19T08:20:15.223Z,24.40
2018-02-19T08:22:42.853Z,22.80
2018-02-19T08:25:10.481Z,22.03
2018-02-19T08:27:38.058Z,21.47
2018-02-19T08:30:05.664Z,19.97
2018-02-19T08:32:33.268Z,20.50
2018-02-19T08:35:00.896Z,25.73
2018-02-19T08:37:28.512Z,21.37
2018-02-19T08:39:56.122Z,22.03
2018-02-19T08:42:23.741Z,20.57
2018-02-19T08:44:51.368Z,20.03
2018-02-19T08:47:18.944Z,18.37
2018-02-19T08:49:47.121Z,21.83
2018-02-19T08:52:14.729Z,23.97
2018-02-19T08:54:42.725Z,21.77
2018-02-19T08:57:10.353Z,18.70
2018-02-19T08:59:37.977Z,21.97
2018-02-19T09:02:05.572Z,24.83
2018-02-19T09:04:33.193Z,22.67
2018-02-19T09:07:00.772Z,20.33
2018-02-19T09:09:28.597Z,22.33
2018-02-19T09:11:56.197Z,23.03
2018-02-19T09:14:23.818Z,25.47
2018-02-19T09:16:51.457Z,23.77
2018-02-19T09:19:19.147Z,20.73
2018-02-19T09:21:46.756Z,25.53
2018-02-19T09:24:14.397Z,22.30
2018-02-19T09:26:42.026Z,23.40
2018-02-19T09:29:09.633Z,21.57
2018-02-19T09:31:37.332Z,24.53
2018-02-19T09:34:04.916Z,21.07
2018-02-19T09:36:32.719Z,27.13
2018-02-19T09:39:00.304Z,21.37
2018-02-19T09:41:28.292Z,24.93
2018-02-19T09:43:55.884Z,19.73
2018-02-19T09:46:23.534Z,21.10
2018-02-19T09:48:51.146Z,22.23
2018-02-19T09:51:18.752Z,26.57
2018-02-19T09:53:46.350Z,25.13
2018-02-19T09:56:14.009Z,23.93
2018-02-19T09:58:41.613Z,23.23
2018-02-19T10:01:09.624Z,24.90
2018-02-19T10:03:37.213Z,20.53
2018-02-19T10:06:04.810Z,24.90
2018-02-19T10:08:32.408Z,21.40
2018-02-19T10:11:00.020Z,21.13
2018-02-19T10:13:27.876Z,22.60
2018-02-19T10:15:55.493Z,20.13
2018-02-19T10:18:23.102Z,25.03
2018-02-19T10:20:50.734Z,16.90
2018-02-19T10:23:18.358Z,21.30
2018-02-19T10:25:45.968Z,20.73
2018-02-19T10:28:13.545Z,24.47
2018-02-19T10:30:41.168Z,22.20
2018-02-19T10:33:08.741Z,19.70
2018-02-19T10:35:49.646Z,20.50
2018-02-19T10:38:17.248Z,17.67
2018-02-19T10:40:44.889Z,17.90
2018-02-19T10:43:12.532Z,16.00
2018-02-19T10:45:40.125Z,14.50
2018-02-19T10:48:07.743Z,16.70
2018-02-19T10:50:35.299Z,17.43
2018-02-19T10:53:02.901Z,17.90
2018-02-19T10:55:30.500Z,18.27
2018-02-19T10:57:58.155Z,21.87
2018-02-19T11:00:31.307Z,18.90
2018-02-19T11:02:58.917Z,18.53
2018-02-19T11:05:26.521Z,16.73
2018-02-19T11:07:54.171Z,17.77
2018-02-19T11:10:21.744Z,17.70
2018-02-19T11:12:49.354Z,17.83
2018-02-19T11:15:16.924Z,16.37
2018-02-19T11:17:44.542Z,15.63
2018-02-19T11:20:12.134Z,13.90
2018-02-19T11:22:39.724Z,14.93
2018-02-19T11:25:07.332Z,15.10
2018-02-19T11:27:35.402Z,15.23
2018-02-19T11:30:02.996Z,13.80
2018-02-19T11:32:30.615Z,12.70
2018-02-19T11:34:58.200Z,15.67
2018-02-19T11:37:25.808Z,15.07
2018-02-19T11:39:53.551Z,13.10
2018-02-19T11:42:21.195Z,14.27
2018-02-19T11:44:48.785Z,18.57
2018-02-19T11:47:16.400Z,12.87
2018-02-19T11:49:43.992Z,15.10
2018-02-19T11:52:11.606Z,13.27
2018-02-19T11:54:39.221Z,15.83
2018-02-19T11:57:06.824Z,15.47
2018-02-19T11:59:34.401Z,14.93
2018-02-19T12:02:02.021Z,30.67
2018-02-19T12:04:29.653Z,17.73
2018-02-19T12:06:57.256Z,15.40
2018-02-19T12:09:24.896Z,14.30
2018-02-19T12:11:52.497Z,13.53
2018-02-19T12:14:20.109Z,15.30
2018-02-19T12:16:47.719Z,16.30
2018-02-19T12:19:15.406Z,16.40
2018-02-19T12:21:43.176Z,15.93
2018-02-19T12:24:10.839Z,16.20
2018-02-19T12:26:38.436Z,15.27
2018-02-19T12:29:06.052Z,17.23
2018-02-19T12:31:33.656Z,14.90
2018-02-19T12:34:01.256Z,17.63
2018-02-19T12:36:28.861Z,19.17
2018-02-19T12:38:56.476Z,14.70
2018-02-19T12:41:24.063Z,19.23
2018-02-19T12:43:51.674Z,26.37
2018-02-19T12:46:19.276Z,16.87
2018-02-19T12:48:46.902Z,18.23
2018-02-19T12:51:14.500Z,16.50
2018-02-19T12:53:42.130Z,15.60
2018-02-19T12:56:09.717Z,16.03
2018-02-19T12:58:37.381Z,18.97
2018-02-19T13:01:04.984Z,17.50
2018-02-19T13:03:32.807Z,21.53
2018-02-19T13:06:00.406Z,17.57
2018-02-19T13:08:28.074Z,21.03
2018-02-19T13:10:56.045Z,20.83
2018-02-19T13:13:23.659Z,19.93
2018-02-19T13:15:51.829Z,21.07
2018-02-19T13:18:19.456Z,20.93
2018-02-19T13:20:47.115Z,19.43
2018-02-19T13:23:15.512Z,21.97
2018-02-19T13:25:43.098Z,17.70
2018-02-19T13:28:11.657Z,19.50
2018-02-19T13:30:39.292Z,20.67
2018-02-19T13:33:06.886Z,19.90
2018-02-19T13:35:34.920Z,21.87
2018-02-19T13:38:02.517Z,21.87
2018-02-19T13:40:30.133Z,20.67
2018-02-19T13:42:57.723Z,21.40
2018-02-19T13:45:25.891Z,26.63
2018-02-19T13:47:53.509Z,54.80
2018-02-19T13:50:21.108Z,30.60
2018-02-19T13:52:48.700Z,57.63
2018-02-19T13:55:16.700Z,31.10
2018-02-19T13:57:44.340Z,22.53
2018-02-19T14:00:11.937Z,52.37
2018-02-19T14:02:39.791Z,38.23
2018-02-19T14:05:07.371Z,31.13
2018-02-19T14:07:34.988Z,30.90
2018-02-19T14:10:02.599Z,34.37
2018-02-19T14:12:30.234Z,27.70
2018-02-19T14:14:57.824Z,31.70
2018-02-19T14:17:25.420Z,24.77
2018-02-19T14:19:53.077Z,26.47
2018-02-19T14:22:20.655Z,29.37
2018-02-19T14:24:48.284Z,24.33
2018-02-19T14:27:15.932Z,22.17
2018-02-19T14:29:43.572Z,24.50
2018-02-19T14:32:11.199Z,25.90
2018-02-19T14:34:38.979Z,22.17
2018-02-19T14:37:06.569Z,25.40
2018-02-19T14:39:34.467Z,22.33
2018-02-19T14:42:02.318Z,28.17
2018-02-19T14:44:30.088Z,24.10
2018-02-19T14:46:57.721Z,24.67
2018-02-19T14:49:25.439Z,25.13
2018-02-19T14:51:53.545Z,32.83
2018-02-19T14:54:21.397Z,24.73
2018-02-19T14:56:49.391Z,25.50
2018-02-19T14:59:17.090Z,23.83
2018-02-19T15:01:44.726Z,21.60
2018-02-19T15:04:16.122Z,21.70
2018-02-19T15:06:43.787Z,24.13
2018-02-19T15:09:11.438Z,27.27
2018-02-19T15:11:39.139Z,24.13
2018-02-19T15:14:06.790Z,20.77
2018-02-19T15:16:37.798Z,17.87
2018-02-19T15:19:05.470Z,19.53
2018-02-19T15:21:33.179Z,22.43
2018-02-19T15:24:01.012Z,22.00
2018-02-19T15:26:28.678Z,22.93
2018-02-19T15:28:56.312Z,23.17
2018-02-19T15:31:32.761Z,21.57
2018-02-19T15:34:00.370Z,19.47
2018-02-19T15:36:27.977Z,21.33
2018-02-19T15:38:55.562Z,22.30
2018-02-19T15:41:23.173Z,20.97
2018-02-19T15:43:50.782Z,19.53
2018-02-19T15:46:19.152Z,21.70
2018-02-19T15:48:47.341Z,24.10
2018-02-19T15:51:16.549Z,23.17
2018-02-19T15:53:44.551Z,21.23
2018-02-19T15:56:16.568Z,27.50
2018-02-19T15:58:44.176Z,22.97
2018-02-19T16:01:12.081Z,29.47
2018-02-19T16:03:39.694Z,28.07
2018-02-19T16:06:07.665Z,30.57
2018-02-19T16:08:35.284Z,28.80
2018-02-19T16:11:03.585Z,33.50
2018-02-19T16:13:31.233Z,27.67
2018-02-19T16:15:58.853Z,28.90
2018-02-19T16:18:26.445Z,21.23
2018-02-19T16:20:54.178Z,24.00
2018-02-19T16:23:21.766Z,25.93
2018-02-19T16:25:49.396Z,24.67
2018-02-19T16:28:16.996Z,25.97
2018-02-19T16:30:44.659Z,27.43
2018-02-19T16:33:12.260Z,20.50
2018-02-19T16:35:39.931Z,26.97
2018-02-19T16:38:07.541Z,26.47
2018-02-19T16:40:35.757Z,32.47
2018-02-19T16:43:03.435Z,32.10
2018-02-19T16:45:31.044Z,45.37
2018-02-19T16:47:58.693Z,36.77
2018-02-19T16:50:27.668Z,35.23
2018-02-19T16:52:55.342Z,30.80
2018-02-19T16:55:22.955Z,29.83
2018-02-19T16:57:50.579Z,28.40
2018-02-19T17:00:22.159Z,39.53
2018-02-19T17:02:49.776Z,50.43
2018-02-19T17:05:17.433Z,63.83
2018-02-19T17:07:45.285Z,29.60
2018-02-19T17:10:12.921Z,66.90
2018-02-19T17:12:40.776Z,51.73
2018-02-19T17:15:08.434Z,34.30
2018-02-19T17:17:36.061Z,29.77
2018-02-19T17:20:03.688Z,36.53
2018-02-19T17:22:31.348Z,27.30
2018-02-19T17:24:58.960Z,27.17
2018-02-19T17:27:26.592Z,25.27
2018-02-19T17:29:54.605Z,28.40
2018-02-19T17:32:22.232Z,30.10
2018-02-19T17:34:50.645Z,28.70
2018-02-19T17:37:18.281Z,27.30
2018-02-19T17:39:45.868Z,25.73
2018-02-19T17:42:13.929Z,27.10
2018-02-19T17:44:41.585Z,22.70
2018-02-19T17:47:11.698Z,26.40
2018-02-19T17:49:39.856Z,27.60
2018-02-19T17:52:07.920Z,26.70
2018-02-19T17:54:35.538Z,31.53
2018-02-19T17:57:03.165Z,32.50
2018-02-19T17:59:30.775Z,31.90
2018-02-19T18:01:58.436Z,29.70
2018-02-19T18:04:26.040Z,31.53
2018-02-19T18:06:53.660Z,32.53
2018-02-19T18:09:21.263Z,28.93
2018-02-19T18:11:48.880Z,28.27
2018-02-19T18:14:16.539Z,29.30
2018-02-19T18:16:44.161Z,33.73
2018-02-19T18:19:11.767Z,29.73
2018-02-19T18:21:40.827Z,26.50
2018-02-19T18:24:08.873Z,29.33
2018-02-19T18:26:36.556Z,27.53
2018-02-19T18:29:04.176Z,27.90
2018-02-19T18:31:32.104Z,31.20
2018-02-19T18:37:57.280Z,28.00
2018-02-19T18:40:24.854Z,29.87
2018-02-19T18:42:52.510Z,25.53
2018-02-19T18:45:23.926Z,31.00
2018-02-19T18:47:58.756Z,29.83
2018-02-19T18:50:27.196Z,29.53
2018-02-19T18:52:54.824Z,28.37
2018-02-19T18:55:22.413Z,31.20
2018-02-19T18:57:49.991Z,32.87
2018-02-19T19:00:19.701Z,29.40
2018-02-19T19:02:49.107Z,27.90
2018-02-19T19:05:16.753Z,27.93
2018-02-19T19:07:56.604Z,26.87
2018-02-19T19:10:36.029Z,25.80
2018-02-19T19:13:03.621Z,30.27
2018-02-19T19:15:31.369Z,29.63
2018-02-19T19:17:59.171Z,32.60
2018-02-19T19:20:26.940Z,28.23
2018-02-19T19:22:54.569Z,25.43
2018-02-19T19:25:22.401Z,25.00
2018-02-19T19:27:50.244Z,27.90
2018-02-19T19:30:18.050Z,26.73
2018-02-19T19:32:45.927Z,23.57
2018-02-19T19:35:13.544Z,26.47
2018-02-19T19:37:41.407Z,24.80
2018-02-19T19:40:09.061Z,28.30
2018-02-19T19:42:36.866Z,24.77
2018-02-19T19:45:04.694Z,29.13
2018-02-19T19:47:32.865Z,27.77
2018-02-19T19:50:00.997Z,31.87
2018-02-19T19:52:28.665Z,33.00
2018-02-19T19:54:56.268Z,31.93
2018-02-19T19:57:23.868Z,30.83
2018-02-19T19:59:51.568Z,25.93
2018-02-19T20:02:19.330Z,28.63
2018-02-19T20:04:47.013Z,26.27
2018-02-19T20:07:14.631Z,33.43
2018-02-19T20:09:42.256Z,28.27
2018-02-19T20:12:09.957Z,31.33
2018-02-19T20:14:37.702Z,32.23
2018-02-19T20:17:05.485Z,27.40
2018-02-19T20:19:33.182Z,30.93
2018-02-19T20:22:00.952Z,27.83
2018-02-19T20:24:28.595Z,30.63
2018-02-19T20:26:56.340Z,28.77
2018-02-19T20:29:23.985Z,28.07
2018-02-19T20:31:51.724Z,26.63
2018-02-19T20:34:19.530Z,26.83
2018-02-19T20:36:47.187Z,27.47
2018-02-19T20:39:14.966Z,25.63
2018-02-19T20:41:42.613Z,26.77
2018-02-19T20:44:10.261Z,35.83
2018-02-19T20:46:37.880Z,35.03
2018-02-19T20:49:05.474Z,31.87
2018-02-19T20:51:33.045Z,35.07
2018-02-19T20:54:00.690Z,60.20
2018-02-19T20:56:28.304Z,68.40
2018-02-19T20:58:56.412Z,50.50
2018-02-19T21:01:24.028Z,44.83
2018-02-19T21:03:51.668Z,37.53
2018-02-19T21:06:23.524Z,34.90
2018-02-19T21:08:51.112Z,38.80
2018-02-19T21:11:18.708Z,31.50
2018-02-19T21:13:46.333Z,30.27
2018-02-19T21:16:14.310Z,31.37
2018-02-19T21:18:41.999Z,32.07
2018-02-19T21:21:09.615Z,33.63
2018-02-19T21:23:37.627Z,34.17
2018-02-19T21:26:05.435Z,31.47
2018-02-19T21:28:33.049Z,41.40
2018-02-19T21:31:00.635Z,53.07
2018-02-19T21:33:28.339Z,32.67
2018-02-19T21:35:55.976Z,38.37
2018-02-19T21:38:23.948Z,43.23
2018-02-19T21:40:51.968Z,39.63
2018-02-19T21:43:19.593Z,41.87
2018-02-19T21:45:47.205Z,48.67
2018-02-19T21:48:14.794Z,61.43
2018-02-19T21:50:42.387Z,91.47
2018-02-19T21:53:09.964Z,74.33
2018-02-19T21:55:37.588Z,57.23
2018-02-19T21:58:05.152Z,61.57
2018-02-19T22:00:33.166Z,85.30
2018-02-19T22:03:00.765Z,77.27
2018-02-19T22:05:28.379Z,77.00
2018-02-19T22:07:55.988Z,70.77
2018-02-19T22:10:24.030Z,77.27
2018-02-19T22:12:51.695Z,84.17
2018-02-19T22:15:19.281Z,69.73
2018-02-19T22:17:46.942Z,57.23
2018-02-19T22:20:14.977Z,35.33
2018-02-19T22:22:42.586Z,31.03
2018-02-19T22:25:10.193Z,42.07
2018-02-19T22:27:37.776Z,33.33
2018-02-19T22:30:05.789Z,31.80
2018-02-19T22:32:33.385Z,43.87
2018-02-19T22:35:01.045Z,39.17
2018-02-19T22:37:28.616Z,39.83
2018-02-19T22:39:56.225Z,45.53
2018-02-19T22:42:23.840Z,37.63
2018-02-19T22:44:51.445Z,33.77
2018-02-19T22:47:19.045Z,34.73
2018-02-19T22:49:46.678Z,31.63
2018-02-19T22:52:14.320Z,31.60
2018-02-19T22:54:41.923Z,30.20
2018-02-19T22:57:09.521Z,36.80
2018-02-19T22:59:37.165Z,33.77
2018-02-19T23:02:04.791Z,41.07
2018-02-19T23:04:32.438Z,37.37
2018-02-19T23:07:00.053Z,33.70
2018-02-19T23:09:27.661Z,36.40
2018-02-19T23:11:55.255Z,36.73
2018-02-19T23:14:23.256Z,32.27
2018-02-19T23:16:50.913Z,37.20
2018-02-19T23:19:18.487Z,32.30
2018-02-19T23:21:46.097Z,32.40
2018-02-19T23:24:13.741Z,32.00
2018-02-19T23:26:41.373Z,37.17
2018-02-19T23:29:08.965Z,32.63
2018-02-19T23:31:36.570Z,35.47
2018-02-19T23:34:04.149Z,38.77
2018-02-19T23:36:31.744Z,30.90
2018-02-19T23:38:59.397Z,32.07
2018-02-19T23:41:26.982Z,36.00
2018-02-19T23:43:54.581Z,33.17
2018-02-19T23:46:22.207Z,31.73
2018-02-19T23:48:49.827Z,34.93
2018-02-19T23:51:17.431Z,34.67
2018-02-19T23:53:45.037Z,31.60
2018-02-19T23:56:12.636Z,34.50
2018-02-19T23:58:40.673Z,35.67
